sensor_id;sensor_type;location;lat;lon;timestamp;P1;durP1;ratioP1;P2;durP2;ratioP2
2107;SDS011;1060;52.492;13.388;2022-08-19T00:01:49;19.60;;;18.10;;
2107;SDS011;1060;52.492;13.388;2022-08-19T00:04:17;18.60;;;17.10;;
2107;SDS011;1060;52.492;13.388;2022-08-19T00:06:43;17.37;;;16.03;;
2107;SDS011;1060;52.492;13.388;2022-08-19T00:09:11;16.50;;;15.13;;
2107;SDS011;1060;52.492;13.388;2022-08-19T00:11:37;17.87;;;16.57;;
2107;SDS011;1060;52.492;13.388;2022-08-19T00:14:04;19.20;;;17.60;;
2107;SDS011;1060;52.492;13.388;2022-08-19T00:16:31;16.30;;;15.00;;
2107;SDS011;1060;52.492;13.388;2022-08-19T00:18:57;18.00;;;16.67;;
2107;SDS011;1060;52.492;13.388;2022-08-19T00:21:24;17.73;;;16.23;;
2107;SDS011;1060;52.492;13.388;2022-08-19T00:23:51;17.43;;;16.13;;
2107;SDS011;1060;52.492;13.388;2022-08-19T00:26:18;19.73;;;18.20;;
2107;SDS011;1060;52.492;13.388;2022-08-19T00:28:44;21.27;;;19.20;;
2107;SDS011;1060;52.492;13.388;2022-08-19T00:31:11;23.63;;;21.60;;
2107;SDS011;1060;52.492;13.388;2022-08-19T00:33:37;24.07;;;21.97;;
2107;SDS011;1060;52.492;13.388;2022-08-19T00:36:04;18.50;;;17.03;;
2107;SDS011;1060;52.492;13.388;2022-08-19T00:38:31;21.30;;;19.50;;
2107;SDS011;1060;52.492;13.388;2022-08-19T00:40:57;19.90;;;18.10;;
2107;SDS011;1060;52.492;13.388;2022-08-19T00:43:24;21.27;;;19.47;;
2107;SDS011;1060;52.492;13.388;2022-08-19T00:45:51;20.27;;;18.67;;
2107;SDS011;1060;52.492;13.388;2022-08-19T00:48:17;22.27;;;18.73;;
2107;SDS011;1060;52.492;13.388;2022-08-19T00:50:44;19.37;;;17.67;;
2107;SDS011;1060;52.492;13.388;2022-08-19T00:53:11;19.90;;;18.00;;
2107;SDS011;1060;52.492;13.388;2022-08-19T00:55:38;22.57;;;20.73;;
2107;SDS011;1060;52.492;13.388;2022-08-19T00:58:09;21.43;;;19.60;;
2107;SDS011;1060;52.492;13.388;2022-08-19T01:00:36;20.17;;;18.60;;
2107;SDS011;1060;52.492;13.388;2022-08-19T01:03:06;21.00;;;19.40;;
2107;SDS011;1060;52.492;13.388;2022-08-19T01:05:32;22.13;;;20.33;;
2107;SDS011;1060;52.492;13.388;2022-08-19T01:07:59;22.67;;;20.70;;
2107;SDS011;1060;52.492;13.388;2022-08-19T01:10:27;24.73;;;22.83;;
2107;SDS011;1060;52.492;13.388;2022-08-19T01:12:55;22.50;;;20.80;;
2107;SDS011;1060;52.492;13.388;2022-08-19T01:15:23;22.80;;;21.00;;
2107;SDS011;1060;52.492;13.388;2022-08-19T01:17:51;23.80;;;22.03;;
2107;SDS011;1060;52.492;13.388;2022-08-19T01:20:19;28.30;;;26.10;;
2107;SDS011;1060;52.492;13.388;2022-08-19T01:22:47;23.63;;;21.73;;
2107;SDS011;1060;52.492;13.388;2022-08-19T01:25:15;25.83;;;23.83;;
2107;SDS011;1060;52.492;13.388;2022-08-19T01:27:42;25.47;;;23.57;;
2107;SDS011;1060;52.492;13.388;2022-08-19T01:30:09;27.13;;;24.93;;
2107;SDS011;1060;52.492;13.388;2022-08-19T01:32:36;29.27;;;26.77;;
2107;SDS011;1060;52.492;13.388;2022-08-19T01:35:02;29.40;;;27.10;;
2107;SDS011;1060;52.492;13.388;2022-08-19T01:37:29;30.23;;;27.63;;
2107;SDS011;1060;52.492;13.388;2022-08-19T01:39:55;46.63;;;26.53;;
2107;SDS011;1060;52.492;13.388;2022-08-19T01:42:21;33.07;;;25.80;;
2107;SDS011;1060;52.492;13.388;2022-08-19T01:44:47;27.83;;;25.07;;
2107;SDS011;1060;52.492;13.388;2022-08-19T01:47:14;26.90;;;24.60;;
2107;SDS011;1060;52.492;13.388;2022-08-19T01:49:40;28.43;;;26.17;;
2107;SDS011;1060;52.492;13.388;2022-08-19T01:52:06;45.47;;;27.57;;
2107;SDS011;1060;52.492;13.388;2022-08-19T01:54:32;30.40;;;27.87;;
2107;SDS011;1060;52.492;13.388;2022-08-19T01:57:05;29.23;;;26.83;;
2107;SDS011;1060;52.492;13.388;2022-08-19T01:59:32;28.10;;;25.70;;
2107;SDS011;1060;52.492;13.388;2022-08-19T02:02:00;39.03;;;28.73;;
2107;SDS011;1060;52.492;13.388;2022-08-19T02:04:27;0.60;;;0.60;;
2107;SDS011;1060;52.492;13.388;2022-08-19T02:06:53;0.60;;;0.50;;
2107;SDS011;1060;52.492;13.388;2022-08-19T02:09:19;0.90;;;0.90;;
2107;SDS011;1060;52.492;13.388;2022-08-19T02:11:47;1.47;;;1.47;;
2107;SDS011;1060;52.492;13.388;2022-08-19T02:14:13;1.33;;;0.77;;
2107;SDS011;1060;52.492;13.388;2022-08-19T02:16:40;0.90;;;0.90;;
2107;SDS011;1060;52.492;13.388;2022-08-19T02:19:06;0.60;;;0.50;;
2107;SDS011;1060;52.492;13.388;2022-08-19T02:21:32;0.60;;;0.50;;
2107;SDS011;1060;52.492;13.388;2022-08-19T02:23:58;0.60;;;0.50;;
2107;SDS011;1060;52.492;13.388;2022-08-19T02:26:25;1.10;;;1.10;;
2107;SDS011;1060;52.492;13.388;2022-08-19T02:28:52;0.50;;;0.50;;
2107;SDS011;1060;52.492;13.388;2022-08-19T02:31:19;1.07;;;0.97;;
2107;SDS011;1060;52.492;13.388;2022-08-19T02:33:46;1.00;;;1.00;;
2107;SDS011;1060;52.492;13.388;2022-08-19T02:36:12;3.67;;;3.37;;
2107;SDS011;1060;52.492;13.388;2022-08-19T02:38:39;0.60;;;0.60;;
2107;SDS011;1060;52.492;13.388;2022-08-19T02:41:28;0.70;;;0.70;;
2107;SDS011;1060;52.492;13.388;2022-08-19T02:43:52;0.50;;;0.50;;
2107;SDS011;1060;52.492;13.388;2022-08-19T02:46:19;0.80;;;0.70;;
2107;SDS011;1060;52.492;13.388;2022-08-19T02:48:48;0.50;;;0.50;;
2107;SDS011;1060;52.492;13.388;2022-08-19T02:51:48;1.87;;;1.10;;
2107;SDS011;1060;52.492;13.388;2022-08-19T02:54:08;1.13;;;1.13;;
2107;SDS011;1060;52.492;13.388;2022-08-19T02:56:35;0.53;;;0.53;;
2107;SDS011;1060;52.492;13.388;2022-08-19T02:59:02;0.60;;;0.60;;
2107;SDS011;1060;52.492;13.388;2022-08-19T03:01:33;0.63;;;0.63;;
2107;SDS011;1060;52.492;13.388;2022-08-19T03:04:00;1.83;;;1.67;;
2107;SDS011;1060;52.492;13.388;2022-08-19T03:06:27;2.30;;;1.23;;
2107;SDS011;1060;52.492;13.388;2022-08-19T03:08:54;0.80;;;0.80;;
2107;SDS011;1060;52.492;13.388;2022-08-19T03:11:23;2.50;;;2.40;;
2107;SDS011;1060;52.492;13.388;2022-08-19T03:13:50;1.27;;;1.27;;
2107;SDS011;1060;52.492;13.388;2022-08-19T03:16:17;0.80;;;0.80;;
2107;SDS011;1060;52.492;13.388;2022-08-19T03:18:44;0.60;;;0.60;;
2107;SDS011;1060;52.492;13.388;2022-08-19T03:21:15;0.60;;;0.60;;
2107;SDS011;1060;52.492;13.388;2022-08-19T03:23:41;0.93;;;0.93;;
2107;SDS011;1060;52.492;13.388;2022-08-19T03:26:07;1.73;;;1.63;;
2107;SDS011;1060;52.492;13.388;2022-08-19T03:28:33;0.83;;;0.83;;
2107;SDS011;1060;52.492;13.388;2022-08-19T03:31:01;0.60;;;0.57;;
2107;SDS011;1060;52.492;13.388;2022-08-19T03:33:30;0.83;;;0.83;;
2107;SDS011;1060;52.492;13.388;2022-08-19T03:38:34;3.00;;;2.90;;
2107;SDS011;1060;52.492;13.388;2022-08-19T03:41:04;0.90;;;0.90;;
2107;SDS011;1060;52.492;13.388;2022-08-19T03:43:31;0.70;;;0.70;;
2107;SDS011;1060;52.492;13.388;2022-08-19T03:46:02;0.60;;;0.60;;
2107;SDS011;1060;52.492;13.388;2022-08-19T03:48:30;0.70;;;0.70;;
2107;SDS011;1060;52.492;13.388;2022-08-19T03:50:56;0.70;;;0.70;;
2107;SDS011;1060;52.492;13.388;2022-08-19T03:53:24;0.60;;;0.50;;
2107;SDS011;1060;52.492;13.388;2022-08-19T03:55:51;1.23;;;1.10;;
2107;SDS011;1060;52.492;13.388;2022-08-19T03:58:18;0.77;;;0.77;;
2107;SDS011;1060;52.492;13.388;2022-08-19T04:00:44;0.70;;;0.67;;
2107;SDS011;1060;52.492;13.388;2022-08-19T04:03:10;2.50;;;2.40;;
2107;SDS011;1060;52.492;13.388;2022-08-19T04:05:36;0.60;;;0.50;;
2107;SDS011;1060;52.492;13.388;2022-08-19T04:08:03;0.60;;;0.50;;
2107;SDS011;1060;52.492;13.388;2022-08-19T04:10:31;0.70;;;0.70;;
2107;SDS011;1060;52.492;13.388;2022-08-19T04:13:00;1.77;;;1.13;;
2107;SDS011;1060;52.492;13.388;2022-08-19T04:15:26;0.60;;;0.60;;
2107;SDS011;1060;52.492;13.388;2022-08-19T04:17:56;0.80;;;0.80;;
2107;SDS011;1060;52.492;13.388;2022-08-19T04:20:22;0.60;;;0.60;;
2107;SDS011;1060;52.492;13.388;2022-08-19T04:22:48;0.60;;;0.50;;
2107;SDS011;1060;52.492;13.388;2022-08-19T04:25:14;0.60;;;0.50;;
2107;SDS011;1060;52.492;13.388;2022-08-19T04:27:40;2.10;;;1.90;;
2107;SDS011;1060;52.492;13.388;2022-08-19T04:30:12;4.03;;;3.80;;
2107;SDS011;1060;52.492;13.388;2022-08-19T04:32:38;2.00;;;1.37;;
2107;SDS011;1060;52.492;13.388;2022-08-19T04:35:04;2.23;;;2.10;;
2107;SDS011;1060;52.492;13.388;2022-08-19T04:37:31;0.60;;;0.60;;
2107;SDS011;1060;52.492;13.388;2022-08-19T04:39:58;1.13;;;1.13;;
2107;SDS011;1060;52.492;13.388;2022-08-19T04:42:43;0.90;;;0.90;;
2107;SDS011;1060;52.492;13.388;2022-08-19T04:45:11;0.60;;;0.60;;
2107;SDS011;1060;52.492;13.388;2022-08-19T04:47:38;0.60;;;0.50;;
2107;SDS011;1060;52.492;13.388;2022-08-19T04:50:05;1.80;;;1.70;;
2107;SDS011;1060;52.492;13.388;2022-08-19T04:52:33;0.60;;;0.50;;
2107;SDS011;1060;52.492;13.388;2022-08-19T04:54:59;0.90;;;0.90;;
2107;SDS011;1060;52.492;13.388;2022-08-19T04:57:25;0.60;;;0.50;;
2107;SDS011;1060;52.492;13.388;2022-08-19T04:59:54;0.83;;;0.83;;
2107;SDS011;1060;52.492;13.388;2022-08-19T05:02:21;1.13;;;1.13;;
2107;SDS011;1060;52.492;13.388;2022-08-19T05:04:56;0.60;;;0.50;;
2107;SDS011;1060;52.492;13.388;2022-08-19T05:07:26;1.23;;;1.23;;
2107;SDS011;1060;52.492;13.388;2022-08-19T05:09:52;0.70;;;0.70;;
2107;SDS011;1060;52.492;13.388;2022-08-19T05:12:19;0.80;;;0.80;;
2107;SDS011;1060;52.492;13.388;2022-08-19T05:14:45;3.47;;;3.27;;
2107;SDS011;1060;52.492;13.388;2022-08-19T05:17:12;0.90;;;0.90;;
2107;SDS011;1060;52.492;13.388;2022-08-19T05:19:38;0.67;;;0.67;;
2107;SDS011;1060;52.492;13.388;2022-08-19T05:22:23;1.20;;;1.20;;
2107;SDS011;1060;52.492;13.388;2022-08-19T05:25:11;0.93;;;0.93;;
2107;SDS011;1060;52.492;13.388;2022-08-19T05:27:37;2.60;;;2.50;;
2107;SDS011;1060;52.492;13.388;2022-08-19T05:30:04;1.10;;;0.80;;
2107;SDS011;1060;52.492;13.388;2022-08-19T05:32:33;1.13;;;1.03;;
2107;SDS011;1060;52.492;13.388;2022-08-19T05:35:00;0.60;;;0.53;;
2107;SDS011;1060;52.492;13.388;2022-08-19T05:37:25;1.93;;;1.60;;
2107;SDS011;1060;52.492;13.388;2022-08-19T05:39:52;5.93;;;3.23;;
2107;SDS011;1060;52.492;13.388;2022-08-19T05:42:19;1.23;;;1.13;;
2107;SDS011;1060;52.492;13.388;2022-08-19T05:44:47;1.70;;;1.60;;
2107;SDS011;1060;52.492;13.388;2022-08-19T05:47:14;3.13;;;2.80;;
2107;SDS011;1060;52.492;13.388;2022-08-19T05:49:45;0.60;;;0.50;;
2107;SDS011;1060;52.492;13.388;2022-08-19T05:52:15;1.07;;;0.97;;
2107;SDS011;1060;52.492;13.388;2022-08-19T05:54:41;1.00;;;1.00;;
2107;SDS011;1060;52.492;13.388;2022-08-19T05:57:10;0.60;;;0.50;;
2107;SDS011;1060;52.492;13.388;2022-08-19T05:59:36;0.60;;;0.50;;
2107;SDS011;1060;52.492;13.388;2022-08-19T06:02:03;0.60;;;0.60;;
2107;SDS011;1060;52.492;13.388;2022-08-19T06:04:32;0.60;;;0.50;;
2107;SDS011;1060;52.492;13.388;2022-08-19T06:06:58;1.00;;;0.97;;
2107;SDS011;1060;52.492;13.388;2022-08-19T06:09:26;0.70;;;0.70;;
2107;SDS011;1060;52.492;13.388;2022-08-19T06:11:56;1.07;;;1.07;;
2107;SDS011;1060;52.492;13.388;2022-08-19T06:14:29;0.60;;;0.50;;
2107;SDS011;1060;52.492;13.388;2022-08-19T06:16:56;0.60;;;0.50;;
2107;SDS011;1060;52.492;13.388;2022-08-19T06:19:23;0.60;;;0.50;;
2107;SDS011;1060;52.492;13.388;2022-08-19T06:21:50;1.27;;;1.27;;
2107;SDS011;1060;52.492;13.388;2022-08-19T06:24:18;0.70;;;0.70;;
2107;SDS011;1060;52.492;13.388;2022-08-19T06:26:45;1.00;;;0.90;;
2107;SDS011;1060;52.492;13.388;2022-08-19T06:29:12;1.13;;;0.80;;
2107;SDS011;1060;52.492;13.388;2022-08-19T06:31:45;3.50;;;3.37;;
2107;SDS011;1060;52.492;13.388;2022-08-19T06:34:12;0.70;;;0.70;;
2107;SDS011;1060;52.492;13.388;2022-08-19T06:36:40;23.50;;;21.60;;
2107;SDS011;1060;52.492;13.388;2022-08-19T06:39:11;22.20;;;20.40;;
2107;SDS011;1060;52.492;13.388;2022-08-19T06:41:38;20.23;;;18.80;;
2107;SDS011;1060;52.492;13.388;2022-08-19T06:44:06;22.13;;;20.30;;
2107;SDS011;1060;52.492;13.388;2022-08-19T06:46:39;22.70;;;20.93;;
2107;SDS011;1060;52.492;13.388;2022-08-19T06:49:09;18.40;;;17.00;;
2107;SDS011;1060;52.492;13.388;2022-08-19T06:51:42;23.50;;;21.70;;
2107;SDS011;1060;52.492;13.388;2022-08-19T06:54:09;21.30;;;19.43;;
2107;SDS011;1060;52.492;13.388;2022-08-19T06:56:36;23.27;;;21.67;;
2107;SDS011;1060;52.492;13.388;2022-08-19T06:59:07;22.07;;;20.27;;
2107;SDS011;1060;52.492;13.388;2022-08-19T07:01:38;21.47;;;19.57;;
2107;SDS011;1060;52.492;13.388;2022-08-19T07:04:06;21.90;;;20.03;;
2107;SDS011;1060;52.492;13.388;2022-08-19T07:06:57;19.87;;;18.37;;
2107;SDS011;1060;52.492;13.388;2022-08-19T07:09:35;22.80;;;20.07;;
2107;SDS011;1060;52.492;13.388;2022-08-19T07:12:03;19.40;;;17.90;;
2107;SDS011;1060;52.492;13.388;2022-08-19T07:14:30;23.03;;;21.27;;
2107;SDS011;1060;52.492;13.388;2022-08-19T07:16:56;21.20;;;19.70;;
2107;SDS011;1060;52.492;13.388;2022-08-19T07:19:25;19.50;;;18.10;;
2107;SDS011;1060;52.492;13.388;2022-08-19T07:21:52;21.90;;;20.30;;
2107;SDS011;1060;52.492;13.388;2022-08-19T07:24:19;22.73;;;20.70;;
2107;SDS011;1060;52.492;13.388;2022-08-19T07:26:48;22.83;;;21.10;;
2107;SDS011;1060;52.492;13.388;2022-08-19T07:29:26;21.67;;;19.70;;
2107;SDS011;1060;52.492;13.388;2022-08-19T07:31:53;20.97;;;19.50;;
2107;SDS011;1060;52.492;13.388;2022-08-19T07:34:21;22.03;;;20.27;;
2107;SDS011;1060;52.492;13.388;2022-08-19T07:36:48;23.40;;;21.63;;
2107;SDS011;1060;52.492;13.388;2022-08-19T07:42:08;21.23;;;19.50;;
2107;SDS011;1060;52.492;13.388;2022-08-19T07:44:35;22.07;;;20.23;;
2107;SDS011;1060;52.492;13.388;2022-08-19T07:47:03;21.73;;;20.17;;
2107;SDS011;1060;52.492;13.388;2022-08-19T07:49:29;23.53;;;21.87;;
2107;SDS011;1060;52.492;13.388;2022-08-19T07:51:58;21.90;;;20.30;;
2107;SDS011;1060;52.492;13.388;2022-08-19T07:54:26;23.93;;;22.07;;
2107;SDS011;1060;52.492;13.388;2022-08-19T07:56:53;25.10;;;23.30;;
2107;SDS011;1060;52.492;13.388;2022-08-19T07:59:19;23.43;;;21.70;;
2107;SDS011;1060;52.492;13.388;2022-08-19T08:01:46;22.87;;;20.97;;
2107;SDS011;1060;52.492;13.388;2022-08-19T08:04:12;22.67;;;21.07;;
2107;SDS011;1060;52.492;13.388;2022-08-19T08:06:58;27.83;;;25.07;;
2107;SDS011;1060;52.492;13.388;2022-08-19T08:09:43;28.40;;;25.57;;
2107;SDS011;1060;52.492;13.388;2022-08-19T08:12:17;26.40;;;24.17;;
2107;SDS011;1060;52.492;13.388;2022-08-19T08:14:47;25.00;;;23.20;;
2107;SDS011;1060;52.492;13.388;2022-08-19T08:17:15;23.57;;;21.77;;
2107;SDS011;1060;52.492;13.388;2022-08-19T08:19:41;25.43;;;23.43;;
2107;SDS011;1060;52.492;13.388;2022-08-19T08:22:08;24.20;;;22.20;;
2107;SDS011;1060;52.492;13.388;2022-08-19T08:24:54;24.63;;;22.77;;
2107;SDS011;1060;52.492;13.388;2022-08-19T08:27:23;25.00;;;23.20;;
2107;SDS011;1060;52.492;13.388;2022-08-19T08:29:49;25.70;;;23.30;;
2107;SDS011;1060;52.492;13.388;2022-08-19T08:32:16;27.37;;;25.33;;
2107;SDS011;1060;52.492;13.388;2022-08-19T08:34:42;24.90;;;23.00;;
2107;SDS011;1060;52.492;13.388;2022-08-19T08:37:08;23.67;;;21.87;;
2107;SDS011;1060;52.492;13.388;2022-08-19T08:39:34;25.77;;;23.87;;
2107;SDS011;1060;52.492;13.388;2022-08-19T08:44:59;25.77;;;23.87;;
2107;SDS011;1060;52.492;13.388;2022-08-19T08:47:29;23.03;;;21.07;;
2107;SDS011;1060;52.492;13.388;2022-08-19T08:50:00;25.17;;;22.90;;
2107;SDS011;1060;52.492;13.388;2022-08-19T08:52:28;26.03;;;24.03;;
2107;SDS011;1060;52.492;13.388;2022-08-19T08:55:05;25.67;;;23.60;;
2107;SDS011;1060;52.492;13.388;2022-08-19T09:02:51;24.90;;;22.80;;
2107;SDS011;1060;52.492;13.388;2022-08-19T09:05:21;25.97;;;24.17;;
2107;SDS011;1060;52.492;13.388;2022-08-19T09:10:38;24.53;;;22.63;;
2107;SDS011;1060;52.492;13.388;2022-08-19T09:15:51;23.30;;;21.40;;
2107;SDS011;1060;52.492;13.388;2022-08-19T09:18:21;24.63;;;22.33;;
2107;SDS011;1060;52.492;13.388;2022-08-19T09:20:53;23.23;;;21.53;;
2107;SDS011;1060;52.492;13.388;2022-08-19T09:23:29;21.23;;;19.53;;
2107;SDS011;1060;52.492;13.388;2022-08-19T09:25:58;23.20;;;20.97;;
2107;SDS011;1060;52.492;13.388;2022-08-19T09:28:28;23.53;;;21.83;;
2107;SDS011;1060;52.492;13.388;2022-08-19T09:30:57;23.50;;;21.53;;
2107;SDS011;1060;52.492;13.388;2022-08-19T09:33:26;21.10;;;19.30;;
2107;SDS011;1060;52.492;13.388;2022-08-19T09:36:05;21.23;;;19.17;;
2107;SDS011;1060;52.492;13.388;2022-08-19T09:38:39;20.70;;;19.20;;
2107;SDS011;1060;52.492;13.388;2022-08-19T09:41:18;20.33;;;18.83;;
2107;SDS011;1060;52.492;13.388;2022-08-19T09:43:45;18.30;;;16.97;;
2107;SDS011;1060;52.492;13.388;2022-08-19T09:46:12;21.60;;;20.10;;
2107;SDS011;1060;52.492;13.388;2022-08-19T09:48:39;22.10;;;20.40;;
2107;SDS011;1060;52.492;13.388;2022-08-19T09:51:13;19.60;;;18.13;;
2107;SDS011;1060;52.492;13.388;2022-08-19T09:53:41;20.23;;;18.50;;
2107;SDS011;1060;52.492;13.388;2022-08-19T09:56:07;20.80;;;18.90;;
2107;SDS011;1060;52.492;13.388;2022-08-19T09:58:34;21.43;;;19.50;;
2107;SDS011;1060;52.492;13.388;2022-08-19T10:01:01;21.60;;;20.00;;
2107;SDS011;1060;52.492;13.388;2022-08-19T10:03:28;20.50;;;18.90;;
2107;SDS011;1060;52.492;13.388;2022-08-19T10:05:59;22.43;;;20.50;;
2107;SDS011;1060;52.492;13.388;2022-08-19T10:08:31;20.43;;;19.03;;
2107;SDS011;1060;52.492;13.388;2022-08-19T10:10:58;22.60;;;20.83;;
2107;SDS011;1060;52.492;13.388;2022-08-19T10:13:25;21.17;;;19.60;;
2107;SDS011;1060;52.492;13.388;2022-08-19T10:15:53;20.03;;;18.57;;
2107;SDS011;1060;52.492;13.388;2022-08-19T10:18:20;20.57;;;18.97;;
2107;SDS011;1060;52.492;13.388;2022-08-19T10:20:48;19.03;;;17.83;;
2107;SDS011;1060;52.492;13.388;2022-08-19T10:23:14;21.53;;;19.90;;
2107;SDS011;1060;52.492;13.388;2022-08-19T10:25:41;20.03;;;18.33;;
2107;SDS011;1060;52.492;13.388;2022-08-19T10:28:08;20.77;;;19.13;;
2107;SDS011;1060;52.492;13.388;2022-08-19T10:30:38;19.47;;;18.07;;
2107;SDS011;1060;52.492;13.388;2022-08-19T10:33:12;20.10;;;18.67;;
2107;SDS011;1060;52.492;13.388;2022-08-19T10:35:40;22.93;;;21.33;;
2107;SDS011;1060;52.492;13.388;2022-08-19T10:38:06;20.57;;;18.97;;
2107;SDS011;1060;52.492;13.388;2022-08-19T10:40:32;19.90;;;18.43;;
2107;SDS011;1060;52.492;13.388;2022-08-19T10:42:58;18.80;;;17.40;;
2107;SDS011;1060;52.492;13.388;2022-08-19T10:45:30;21.20;;;19.57;;
2107;SDS011;1060;52.492;13.388;2022-08-19T10:47:57;19.50;;;18.20;;
2107;SDS011;1060;52.492;13.388;2022-08-19T10:50:29;22.13;;;20.43;;
2107;SDS011;1060;52.492;13.388;2022-08-19T10:53:14;22.03;;;20.33;;
2107;SDS011;1060;52.492;13.388;2022-08-19T10:55:44;21.70;;;19.90;;
2107;SDS011;1060;52.492;13.388;2022-08-19T10:58:31;20.13;;;18.63;;
2107;SDS011;1060;52.492;13.388;2022-08-19T11:01:07;20.50;;;18.80;;
2107;SDS011;1060;52.492;13.388;2022-08-19T11:03:34;19.47;;;18.07;;
2107;SDS011;1060;52.492;13.388;2022-08-19T11:06:01;18.30;;;17.00;;
2107;SDS011;1060;52.492;13.388;2022-08-19T11:08:28;21.27;;;19.77;;
2107;SDS011;1060;52.492;13.388;2022-08-19T11:11:08;21.07;;;19.03;;
2107;SDS011;1060;52.492;13.388;2022-08-19T11:13:41;20.20;;;18.80;;
2107;SDS011;1060;52.492;13.388;2022-08-19T11:16:15;18.93;;;17.53;;
2107;SDS011;1060;52.492;13.388;2022-08-19T11:18:43;18.90;;;17.40;;
2107;SDS011;1060;52.492;13.388;2022-08-19T11:21:11;19.10;;;17.63;;
2107;SDS011;1060;52.492;13.388;2022-08-19T11:23:42;20.17;;;18.57;;
2107;SDS011;1060;52.492;13.388;2022-08-19T11:26:16;20.80;;;19.30;;
2107;SDS011;1060;52.492;13.388;2022-08-19T11:28:45;19.67;;;17.83;;
2107;SDS011;1060;52.492;13.388;2022-08-19T11:31:34;22.10;;;20.10;;
2107;SDS011;1060;52.492;13.388;2022-08-19T11:34:04;18.93;;;17.53;;
2107;SDS011;1060;52.492;13.388;2022-08-19T11:36:40;18.73;;;17.33;;
2107;SDS011;1060;52.492;13.388;2022-08-19T11:39:08;18.90;;;17.50;;
2107;SDS011;1060;52.492;13.388;2022-08-19T11:41:36;17.00;;;15.60;;
2107;SDS011;1060;52.492;13.388;2022-08-19T11:44:05;17.17;;;15.63;;
2107;SDS011;1060;52.492;13.388;2022-08-19T11:46:36;19.20;;;17.27;;
2107;SDS011;1060;52.492;13.388;2022-08-19T11:49:03;17.77;;;16.37;;
2107;SDS011;1060;52.492;13.388;2022-08-19T11:51:33;15.47;;;14.20;;
2107;SDS011;1060;52.492;13.388;2022-08-19T11:54:05;16.77;;;15.67;;
2107;SDS011;1060;52.492;13.388;2022-08-19T11:56:32;17.50;;;16.27;;
2107;SDS011;1060;52.492;13.388;2022-08-19T11:58:58;19.20;;;17.47;;
2107;SDS011;1060;52.492;13.388;2022-08-19T12:01:26;16.60;;;15.40;;
2107;SDS011;1060;52.492;13.388;2022-08-19T12:03:56;16.33;;;15.10;;
2107;SDS011;1060;52.492;13.388;2022-08-19T12:06:50;15.87;;;14.80;;
2107;SDS011;1060;52.492;13.388;2022-08-19T12:09:18;16.00;;;14.80;;
2107;SDS011;1060;52.492;13.388;2022-08-19T12:11:44;14.83;;;13.83;;
2107;SDS011;1060;52.492;13.388;2022-08-19T12:14:12;15.47;;;14.40;;
2107;SDS011;1060;52.492;13.388;2022-08-19T12:16:43;15.40;;;14.30;;
2107;SDS011;1060;52.492;13.388;2022-08-19T12:19:35;15.07;;;13.93;;
2107;SDS011;1060;52.492;13.388;2022-08-19T12:22:00;16.00;;;14.60;;
2107;SDS011;1060;52.492;13.388;2022-08-19T12:24:49;13.57;;;12.67;;
2107;SDS011;1060;52.492;13.388;2022-08-19T12:27:18;16.17;;;14.87;;
2107;SDS011;1060;52.492;13.388;2022-08-19T12:29:47;13.97;;;12.97;;
2107;SDS011;1060;52.492;13.388;2022-08-19T12:32:16;15.60;;;14.40;;
2107;SDS011;1060;52.492;13.388;2022-08-19T12:34:52;13.23;;;12.30;;
2107;SDS011;1060;52.492;13.388;2022-08-19T12:37:19;13.70;;;12.70;;
2107;SDS011;1060;52.492;13.388;2022-08-19T12:39:46;14.67;;;13.67;;
2107;SDS011;1060;52.492;13.388;2022-08-19T12:42:13;13.63;;;12.60;;
2107;SDS011;1060;52.492;13.388;2022-08-19T12:44:44;13.07;;;12.17;;
2107;SDS011;1060;52.492;13.388;2022-08-19T12:47:11;11.87;;;11.10;;
2107;SDS011;1060;52.492;13.388;2022-08-19T12:49:39;12.67;;;11.67;;
2107;SDS011;1060;52.492;13.388;2022-08-19T12:52:06;12.17;;;11.37;;
2107;SDS011;1060;52.492;13.388;2022-08-19T12:54:42;12.90;;;11.83;;
2107;SDS011;1060;52.492;13.388;2022-08-19T12:57:13;12.90;;;11.90;;
2107;SDS011;1060;52.492;13.388;2022-08-19T12:59:40;12.27;;;11.57;;
2107;SDS011;1060;52.492;13.388;2022-08-19T13:02:06;16.00;;;14.70;;
2107;SDS011;1060;52.492;13.388;2022-08-19T13:04:36;14.53;;;13.53;;
2107;SDS011;1060;52.492;13.388;2022-08-19T13:07:16;13.83;;;12.83;;
2107;SDS011;1060;52.492;13.388;2022-08-19T13:09:45;14.70;;;13.60;;
2107;SDS011;1060;52.492;13.388;2022-08-19T13:12:11;14.73;;;13.63;;
2107;SDS011;1060;52.492;13.388;2022-08-19T13:14:38;15.50;;;14.30;;
2107;SDS011;1060;52.492;13.388;2022-08-19T13:17:09;14.43;;;13.20;;
2107;SDS011;1060;52.492;13.388;2022-08-19T13:19:39;15.67;;;14.40;;
2107;SDS011;1060;52.492;13.388;2022-08-19T13:22:06;13.63;;;12.73;;
2107;SDS011;1060;52.492;13.388;2022-08-19T13:24:32;15.43;;;14.23;;
2107;SDS011;1060;52.492;13.388;2022-08-19T13:27:02;14.80;;;13.70;;
2107;SDS011;1060;52.492;13.388;2022-08-19T13:29:28;14.70;;;13.57;;
2107;SDS011;1060;52.492;13.388;2022-08-19T13:32:13;16.50;;;15.20;;
2107;SDS011;1060;52.492;13.388;2022-08-19T13:35:00;16.67;;;15.47;;
2107;SDS011;1060;52.492;13.388;2022-08-19T13:37:39;15.80;;;14.70;;
2107;SDS011;1060;52.492;13.388;2022-08-19T13:40:10;15.77;;;14.67;;
2107;SDS011;1060;52.492;13.388;2022-08-19T13:42:38;14.00;;;13.10;;
2107;SDS011;1060;52.492;13.388;2022-08-19T13:45:05;17.10;;;15.47;;
2107;SDS011;1060;52.492;13.388;2022-08-19T13:47:32;14.97;;;13.87;;
2107;SDS011;1060;52.492;13.388;2022-08-19T13:50:04;14.77;;;13.70;;
2107;SDS011;1060;52.492;13.388;2022-08-19T13:52:33;25.03;;;22.87;;
2107;SDS011;1060;52.492;13.388;2022-08-19T13:54:59;16.13;;;14.93;;
2107;SDS011;1060;52.492;13.388;2022-08-19T13:57:26;16.90;;;15.60;;
2107;SDS011;1060;52.492;13.388;2022-08-19T13:59:52;14.93;;;13.90;;
2107;SDS011;1060;52.492;13.388;2022-08-19T14:02:18;14.50;;;13.40;;
2107;SDS011;1060;52.492;13.388;2022-08-19T14:04:44;15.27;;;14.27;;
2107;SDS011;1060;52.492;13.388;2022-08-19T14:07:13;14.40;;;13.40;;
2107;SDS011;1060;52.492;13.388;2022-08-19T14:09:39;15.43;;;14.27;;
2107;SDS011;1060;52.492;13.388;2022-08-19T14:12:05;14.87;;;13.77;;
2107;SDS011;1060;52.492;13.388;2022-08-19T14:14:32;16.97;;;15.57;;
2107;SDS011;1060;52.492;13.388;2022-08-19T14:17:05;13.67;;;12.73;;
2107;SDS011;1060;52.492;13.388;2022-08-19T14:19:31;12.03;;;11.23;;
2107;SDS011;1060;52.492;13.388;2022-08-19T14:22:00;14.00;;;12.90;;
2107;SDS011;1060;52.492;13.388;2022-08-19T14:24:26;14.73;;;13.73;;
2107;SDS011;1060;52.492;13.388;2022-08-19T14:26:55;15.90;;;14.67;;
2107;SDS011;1060;52.492;13.388;2022-08-19T14:29:30;14.03;;;13.03;;
2107;SDS011;1060;52.492;13.388;2022-08-19T14:31:56;15.23;;;14.13;;
2107;SDS011;1060;52.492;13.388;2022-08-19T14:34:26;15.27;;;14.03;;
2107;SDS011;1060;52.492;13.388;2022-08-19T14:36:53;14.27;;;13.27;;
2107;SDS011;1060;52.492;13.388;2022-08-19T14:39:19;14.00;;;13.00;;
2107;SDS011;1060;52.492;13.388;2022-08-19T14:42:28;15.13;;;14.03;;
2107;SDS011;1060;52.492;13.388;2022-08-19T14:44:58;14.20;;;13.20;;
2107;SDS011;1060;52.492;13.388;2022-08-19T14:47:24;16.30;;;14.63;;
2107;SDS011;1060;52.492;13.388;2022-08-19T14:49:52;16.13;;;14.90;;
2107;SDS011;1060;52.492;13.388;2022-08-19T14:52:18;16.47;;;15.27;;
2107;SDS011;1060;52.492;13.388;2022-08-19T14:54:44;15.30;;;13.93;;
2107;SDS011;1060;52.492;13.388;2022-08-19T14:57:14;13.80;;;12.80;;
2107;SDS011;1060;52.492;13.388;2022-08-19T14:59:43;13.50;;;12.60;;
2107;SDS011;1060;52.492;13.388;2022-08-19T15:02:10;16.03;;;14.90;;
2107;SDS011;1060;52.492;13.388;2022-08-19T15:04:37;13.83;;;12.83;;
2107;SDS011;1060;52.492;13.388;2022-08-19T15:07:04;13.40;;;12.50;;
2107;SDS011;1060;52.492;13.388;2022-08-19T15:09:33;13.70;;;12.60;;
2107;SDS011;1060;52.492;13.388;2022-08-19T15:12:03;11.87;;;10.97;;
2107;SDS011;1060;52.492;13.388;2022-08-19T15:14:29;14.00;;;13.00;;